Mantrap, Minnesota
Current Conditions -  °F | °C
As of 3:53 PM on Friday 24 Oct 2014 (Local Time) from KPKD Reporting Station
Clear Clear  
Wind Chill: 71°   Ceiling: Unl
Heat Index: 71°   Visibility: 10mi
Dew Point: 38°   Wind: 15mph
Humidity: 30%   Direction: 270°W
Pressure: 29.77"   Gusts: NA
Location:  46.8735°N, 94.8033°W
Report Text: KPKD 242053Z AUTO 27013KT 10SM CLR 22/03 A2977 RMK AO2 SLP082 T02170033 56011 TSNO
Loading
Personal Weather Stations






























Interactive Weather Map
Tropical Storm Tracking
New forecast layout! Learn more

10-Day Weather Forecast

Advertisements
Track Severe Weather on mobile